Latest Coastal Weather Observations for Derby

IDW60701

Issued at 9:52 pm WST Tuesday 4 August 2015 (issued every 10 minutes, with the page automatically refreshed every 10 minutes)

About coastal observations | Map of coastal stations | Coastal observations for WA | Marine services | Other Formats
Station Details ID: 003032 Name: DERBY AERO Lat: -17.37 Lon: 123.66 Height: 6.2 m
Data from the previous 72 hours. | See also: Recent months at Derby
Date/Time
WST
Temp

°C
Wind Pressure Rain
since 9am
mm
Weather Cloud Vis
km
Sea
Height
m
Swell
Dir
 
Speed
knots
Gust
knots
hPa Trend Height
m
Period
s
Dir
04/09:30pm 23.9 SE 8 11 1016.3 - 0.0 - - - - - - -
04/09:00pm 25.0 SE 9 10 1016.1 - 0.0 - - - - - - -
04/08:30pm 25.0 SE 9 11 1016.1 - 0.0 - - - - - - -
04/08:00pm 22.9 SE 6 7 1016.1 - 0.0 - - - - - - -
04/07:30pm 24.9 SSE 7 9 1015.7 - 0.0 - - - - - - -
04/07:00pm 25.8 SSE 7 9 1015.4 - 0.0 - - - - - - -
04/06:30pm 27.1 SE 7 9 1014.9 - 0.0 - - - - - - -
04/06:00pm 28.6 SE 8 10 1014.5 - 0.0 - - - - - - -
04/05:30pm 30.0 SE 9 12 1014.2 - 0.0 - - - - - - -
04/05:00pm 31.4 SE 11 14 1014.1 - 0.0 - - - - - - -
04/04:30pm 32.2 SE 10 13 1013.9 - 0.0 - - - - - - -
04/04:00pm 32.6 ESE 11 16 1013.8 - 0.0 - - - - - - -
04/03:30pm 32.8 SE 10 15 1013.7 - 0.0 - - - - - - -
04/03:00pm 32.5 ESE 10 14 1013.8 - 0.0 - - - - - - -
04/02:30pm 33.2 SE 8 14 1014.1 - 0.0 - - - - - - -
04/02:00pm 32.6 ESE 8 13 1014.4 - 0.0 - - - - - - -
04/01:30pm 32.8 E 9 15 1014.6 - 0.0 - - - - - - -
04/01:00pm 33.1 E 10 16 1015.1 - 0.0 - - - - - - -
04/12:30pm 32.7 E 10 15 1015.6 - 0.0 - - - - - - -
04/12:00pm 31.4 ESE 10 16 1016.2 - 0.0 - - - - - - -
04/11:30am 31.3 E 12 21 1016.7 - 0.0 - - - - - - -
04/11:00am 31.2 E 13 19 1017.3 - 0.0 - - - - - - -
04/10:30am 30.3 E 13 19 1017.7 - 0.0 - - - - - - -
04/10:00am 29.0 E 15 21 1018.0 - 0.0 - - - - - - -
04/09:30am 28.7 E 16 22 1018.2 - 0.0 - - - - - - -
04/09:00am 27.5 ESE 16 22 1018.3 - 0.0 - - - - - - -
04/08:30am 26.0 ESE 15 20 1018.2 - 0.0 - - - - - - -
04/08:00am 24.7 ESE 16 21 1018.0 - 0.0 - - - - - - -
04/07:30am 23.5 ESE 16 21 1017.9 - 0.0 - - - - - - -
04/07:00am 22.2 SE 14 19 1017.7 - 0.0 - - - - - - -
04/06:30am 21.5 SE 14 21 1017.3 - 0.0 - - - - - - -
04/06:00am 21.4 SE 13 19 1017.1 - 0.0 - - - - - - -
04/05:30am 21.7 SE 11 14 1016.9 - 0.0 - - - - - - -
04/05:00am 22.2 SE 11 17 1016.7 - 0.0 - - - - - - -
04/04:30am 22.6 SE 12 20 1016.5 - 0.0 - - - - - - -
04/04:00am 23.0 SE 12 16 1016.4 - 0.0 - - - - - - -
04/03:30am 23.2 SE 11 16 1016.1 - 0.0 - - - - - - -
04/03:00am 23.7 SE 12 15 1016.0 - 0.0 - - - - - - -
04/02:30am 23.8 SE 13 18 1015.9 - 0.0 - - - - - - -
04/02:00am 24.5 SE 13 17 1015.8 - 0.0 - - - - - - -
04/01:30am 25.0 SE 14 18 1015.8 - 0.0 - - - - - - -
04/01:00am 25.4 SE 14 18 1015.9 - 0.0 - - - - - - -
04/12:30am 25.6 SE 13 17 1016.1 - 0.0 - - - - - - -
04/12:00am 26.0 SE 14 18 1016.3 - 0.0 - - - - - - -
 
Date/Time
WST
Temp

°C
Wind Pressure Rain
since 9am
mm
Weather Cloud Vis
km
Sea
Height
m
Swell
Dir
 
Speed
knots
Gust
knots
hPa Trend Height
m
Period
s
Dir
03/11:30pm 26.1 SE 12 17 1016.4 - 0.0 - - - - - - -
03/11:00pm 25.7 SE 9 14 1016.3 - 0.0 - - - - - - -
03/10:30pm 21.8 SSE 8 10 1016.4 - 0.0 - - - - - - -
03/10:00pm 22.8 SSE 8 10 1016.3 - 0.0 - - - - - - -
03/09:30pm 22.1 SSE 6 7 1016.2 - 0.0 - - - - - - -
03/09:00pm 23.1 SSE 7 8 1015.9 - 0.0 - - - - - - -
03/08:30pm 23.5 SSE 7 8 1015.7 - 0.0 - - - - - - -
03/08:00pm 24.1 S 7 8 1015.6 - 0.0 - - - - - - -
03/07:30pm 26.2 SSE 7 11 1015.4 - 0.0 - - - - - - -
03/07:00pm 26.2 SSE 7 13 1015.1 - 0.0 - - - - - - -
03/06:30pm 27.1 S 7 8 1014.8 - 0.0 - - - - - - -
03/06:00pm 29.3 SSE 7 9 1014.5 - 0.0 - - - - - - -
03/05:30pm 31.6 SSE 7 10 1014.3 - 0.0 - - - - - - -
03/05:00pm 32.8 SE 9 12 1014.1 - 0.0 - - - - - - -
03/04:30pm 33.6 SE 9 13 1014.0 - 0.0 - - - - - - -
03/04:00pm 33.7 SE 10 13 1014.0 - 0.0 - - - - - - -
03/03:30pm 33.9 ESE 11 17 1014.0 - 0.0 - - - - - - -
03/03:00pm 34.2 SE 12 16 1013.9 - 0.0 - - - - - - -
03/02:30pm 33.9 SE 10 17 1014.0 - 0.0 - - - - - - -
03/02:00pm 34.2 ESE 9 14 1014.3 - 0.0 - - - - - - -
03/01:30pm 33.7 SSE 9 15 1014.4 - 0.0 - - - - - - -
03/01:00pm 33.7 ESE 10 16 1014.8 - 0.0 - - - - - - -
03/12:30pm 32.6 SE 10 15 1015.4 - 0.0 - - - - - - -
03/12:00pm 32.2 SE 12 17 1015.7 - 0.0 - - - - - - -
03/11:30am 31.2 ESE 12 16 1016.4 - 0.0 - - - - - - -
03/11:00am 30.9 SE 13 18 1016.7 - 0.0 - - - - - - -
03/10:30am 29.8 SE 15 20 1017.1 - 0.0 - - - - - - -
03/10:00am 29.1 SE 15 21 1017.4 - 0.0 - - - - - - -
03/09:30am 28.3 SE 16 21 1017.5 - 0.0 - - - - - - -
03/09:00am 27.2 SE 18 25 1017.4 - 0.0 - - - - - - -
03/08:30am 26.2 SE 18 23 1017.1 - 0.0 - - - - - - -
03/08:00am 25.3 SE 14 20 1016.9 - 0.0 - - - - - - -
03/07:30am 22.7 SSE 8 13 1016.9 - 0.0 - - - - - - -
03/07:29am 22.3 SSE 7 13 1016.9 - 0.0 - - - - - - -
03/07:00am 16.7 S 7 9 1016.5 - 0.0 - - - - - - -
03/06:30am 15.5 SSE 8 10 1016.1 - 0.0 - - - - - - -
03/06:00am 13.7 SSE 2 5 1015.9 - 0.0 - - - - - - -
03/05:30am 13.6 ENE 1 4 1015.7 - 0.0 - - - - - - -
03/05:00am 13.9 SE 1 3 1015.2 - 0.0 - - - - - - -
03/04:30am 15.1 S 6 7 1014.9 - 0.0 - - - - - - -
03/04:00am 15.4 S 7 8 1014.6 - 0.0 - - - - - - -
03/03:30am 15.1 SSW 7 8 1014.7 - 0.0 - - - - - - -
03/03:00am 15.5 SSW 7 8 1014.9 - 0.0 - - - - - - -
03/02:30am 16.2 SSW 8 9 1015.1 - 0.0 - - - - - - -
03/02:00am 16.5 SSW 8 9 1015.1 - 0.0 - - - - - - -
03/01:30am 16.4 S 8 9 1015.2 - 0.0 - - - - - - -
03/01:00am 17.2 SSW 8 9 1015.4 - 0.0 - - - - - - -
03/12:30am 17.9 SSW 7 8 1015.6 - 0.0 - - - - - - -
03/12:00am 17.2 SSW 4 4 1016.0 - 0.0 - - - - - - -
 
Date/Time
WST
Temp

°C
Wind Pressure Rain
since 9am
mm
Weather Cloud Vis
km
Sea
Height
m
Swell
Dir
 
Speed
knots
Gust
knots
hPa Trend Height
m
Period
s
Dir
02/11:30pm 17.5 SSW 4 4 1016.2 - 0.0 - - - - - - -
02/11:00pm 19.3 SSE 3 4 1016.2 - 0.0 - - - - - - -
02/10:30pm 20.0 S 5 5 1016.4 - 0.0 - - - - - - -
02/10:00pm 20.2 S 7 7 1016.4 - 0.0 - - - - - - -
02/09:30pm 23.8 SE 7 8 1016.4 - 0.0 - - - - - - -
02/09:00pm 21.4 SE 5 7 1016.4 - 0.0 - - - - - - -
02/08:30pm 22.1 SSE 6 7 1016.3 - 0.0 - - - - - - -
02/08:00pm 21.9 SE 5 6 1016.2 - 0.0 - - - - - - -
02/07:30pm 26.1 SSE 6 7 1016.0 - 0.0 - - - - - - -
02/07:00pm 26.5 SSE 6 7 1015.7 - 0.0 - - - - - - -
02/06:30pm 28.0 SSE 6 7 1015.3 - 0.0 - - - - - - -
02/06:00pm 29.7 SSE 6 8 1015.0 - 0.0 - - - - - - -
02/05:30pm 31.1 SSE 6 7 1014.7 - 0.0 - - - - - - -
02/05:00pm 32.7 SSE 5 6 1014.3 - 0.0 - - - - - - -
02/04:30pm 33.2 SE 9 11 1014.1 - 0.0 - - - - - - -
02/04:00pm 33.7 ESE 5 8 1014.1 - 0.0 - - - - - - -
02/03:30pm 33.4 SE 9 11 1014.1 - 0.0 - - - - - - -
02/03:00pm 34.0 SSE 8 11 1014.0 - 0.0 - - - - - - -
02/02:30pm 33.7 S 6 11 1014.1 - 0.0 - - - - - - -
02/02:00pm 33.9 E 9 13 1014.5 - 0.0 - - - - - - -
02/01:30pm 33.8 SSE 10 14 1014.7 - 0.0 - - - - - - -
02/01:00pm 33.3 ESE 8 15 1015.0 - 0.0 - - - - - - -
02/12:30pm 32.3 SSE 7 11 1015.3 - 0.0 - - - - - - -
02/12:00pm 32.0 SSE 7 12 1015.9 - 0.0 - - - - - - -
02/11:30am 30.7 SE 8 13 1016.4 - 0.0 - - - - - - -
02/11:00am 30.9 SSE 9 14 1016.9 - 0.0 - - - - - - -
02/10:30am 29.8 SSE 9 15 1017.4 - 0.0 - - - - - - -
02/10:00am 28.8 S 9 12 1017.6 - 0.0 - - - - - - -
02/09:30am 26.0 SSE 8 10 1017.9 - 0.0 - - - - - - -
02/09:00am 23.2 S 7 9 1018.0 - 0.0 - - - - - - -
02/08:30am 21.7 SSE 6 8 1017.8 - 0.0 - - - - - - -
02/08:00am 20.3 S 7 9 1017.6 - 0.0 - - - - - - -
02/07:30am 18.5 S 6 8 1017.3 - 0.0 - - - - - - -
02/07:00am 17.1 S 7 8 1017.2 - 0.0 - - - - - - -
02/06:30am 16.4 SSE 6 7 1016.8 - 0.0 - - - - - - -
02/06:00am 16.0 SSE 6 7 1016.5 - 0.0 - - - - - - -
02/05:30am 15.7 SE 5 6 1016.3 - 0.0 - - - - - - -
02/05:00am 16.0 SSE 5 6 1016.0 - 0.0 - - - - - - -
02/04:30am 15.0 SSE 4 5 1015.7 - 0.0 - - - - - - -
02/04:00am 16.4 SSE 5 6 1015.7 - 0.0 - - - - - - -
02/03:30am 16.5 SSE 5 6 1015.7 - 0.0 - - - - - - -
02/03:00am 16.8 S 4 5 1015.6 - 0.0 - - - - - - -
02/02:30am 17.6 S 6 6 1015.7 - 0.0 - - - - - - -
02/02:00am 18.4 S 6 7 1016.0 - 0.0 - - - - - - -
02/01:30am 18.6 S 6 8 1016.1 - 0.0 - - - - - - -
02/01:00am 19.2 SSE 7 8 1016.2 - 0.0 - - - - - - -
02/12:30am 19.1 SSE 5 6 1016.2 - 0.0 - - - - - - -
02/12:00am 19.6 S 5 5 1016.1 - 0.0 - - - - - - -
 
Date/Time
WST
Temp

°C
Wind Pressure Rain
since 9am
mm
Weather Cloud Vis
km
Sea
Height
m
Swell
Dir
 
Speed
knots
Gust
knots
hPa Trend Height
m
Period
s
Dir
01/11:30pm 19.5 SSE 4 4 1016.1 - 0.0 - - - - - - -
01/11:00pm 20.1 SSE 4 5 1016.3 - 0.0 - - - - - - -
01/10:30pm 20.4 SSW 4 5 1016.4 - 0.0 - - - - - - -
01/10:00pm 20.5 WSW 2 4 1016.4 - 0.0 - - - - - - -

Other Formats:

Comma delimited format used in spreadsheet applications
http://www.bom.gov.au/fwo/IDW60701/IDW60701.95205.axf

JavaScript Object Notation format (JSON) in row-major order
http://www.bom.gov.au/fwo/IDW60701/IDW60701.95205.json